createdAt,value
2022-12-11T00:01:39.862Z,91.20
2022-12-11T00:05:32.699Z,91.75
2022-12-11T00:09:25.240Z,91.54
2022-12-11T00:13:17.953Z,91.96
2022-12-11T00:17:10.789Z,92.14
2022-12-11T00:21:05.577Z,92.14
2022-12-11T00:24:58.252Z,91.58
2022-12-11T00:28:56.775Z,91.56
2022-12-11T00:32:52.088Z,90.93
2022-12-11T00:36:44.853Z,90.58
2022-12-11T00:40:37.628Z,91.17
2022-12-11T00:44:30.245Z,91.20
2022-12-11T00:48:23.129Z,91.64
2022-12-11T00:52:18.181Z,91.61
2022-12-11T00:56:17.005Z,92.35
2022-12-11T01:00:10.427Z,91.72
2022-12-11T01:04:03.094Z,91.54
2022-12-11T01:07:57.011Z,91.82
2022-12-11T01:11:49.903Z,91.42
2022-12-11T01:15:45.513Z,90.98
2022-12-11T01:19:38.351Z,91.06
2022-12-11T01:23:31.513Z,90.83
2022-12-11T01:27:24.100Z,91.07
2022-12-11T01:31:19.497Z,90.71
2022-12-11T01:35:13.104Z,90.70
2022-12-11T01:39:05.801Z,90.97
2022-12-11T01:42:58.617Z,91.06
2022-12-11T01:46:51.658Z,90.47
2022-12-11T01:50:58.642Z,91.34
2022-12-11T01:54:51.529Z,90.98
2022-12-11T01:58:51.974Z,90.53
2022-12-11T02:02:44.941Z,90.93
2022-12-11T02:06:47.424Z,90.53
2022-12-11T02:11:02.282Z,90.29
2022-12-11T02:15:07.015Z,90.23
2022-12-11T02:19:14.896Z,90.44
2022-12-11T02:23:13.577Z,90.27
2022-12-11T02:27:21.330Z,90.05
2022-12-11T02:31:34.770Z,90.67
2022-12-11T02:35:42.738Z,90.75
2022-12-11T02:39:38.431Z,90.54
2022-12-11T02:43:32.845Z,90.66
2022-12-11T02:47:28.527Z,90.57
2022-12-11T02:51:26.234Z,90.98
2022-12-11T02:55:20.080Z,90.54
2022-12-11T02:59:21.698Z,90.64
2022-12-11T03:03:15.212Z,90.99
2022-12-11T03:07:15.877Z,90.64
2022-12-11T03:11:12.038Z,90.67
2022-12-11T03:15:10.552Z,90.72
2022-12-11T03:19:38.685Z,90.76
2022-12-11T03:23:37.200Z,90.71
2022-12-11T03:27:52.393Z,90.39
2022-12-11T03:31:57.727Z,90.17
2022-12-11T03:35:59.254Z,90.80
2022-12-11T03:39:57.177Z,90.70
2022-12-11T03:43:53.505Z,91.10
2022-12-11T03:47:47.669Z,90.80
2022-12-11T03:51:42.466Z,90.98
2022-12-11T03:55:37.802Z,91.20
2022-12-11T03:59:30.416Z,90.99
2022-12-11T04:03:22.947Z,91.20
2022-12-11T04:07:15.743Z,91.22
2022-12-11T04:11:26.834Z,91.51
2022-12-11T04:15:19.355Z,91.06
2022-12-11T04:19:30.423Z,91.48
2022-12-11T04:23:42.160Z,91.61
2022-12-11T04:27:49.798Z,91.27
2022-12-11T04:31:42.700Z,91.09
2022-12-11T04:35:36.517Z,91.25
2022-12-11T04:39:29.307Z,91.08
2022-12-11T04:43:21.604Z,90.64
2022-12-11T04:47:14.713Z,90.53
2022-12-11T04:51:08.955Z,90.85
2022-12-11T04:55:01.605Z,90.85
2022-12-11T04:58:54.544Z,90.85
2022-12-11T05:02:47.311Z,90.42
2022-12-11T05:06:39.945Z,91.16
2022-12-11T05:10:32.585Z,90.93
2022-12-11T05:14:26.378Z,91.25
2022-12-11T05:18:18.927Z,91.24
2022-12-11T05:22:11.636Z,91.25
2022-12-11T05:26:07.758Z,91.08
2022-12-11T05:30:00.487Z,91.63
2022-12-11T05:33:54.376Z,91.56
2022-12-11T05:37:46.649Z,90.98
2022-12-11T05:41:39.392Z,91.06
2022-12-11T05:45:32.021Z,90.92
2022-12-11T05:49:30.552Z,90.96
2022-12-11T05:53:24.364Z,90.95
2022-12-11T05:57:17.447Z,90.94
2022-12-11T06:01:19.437Z,91.04
2022-12-11T06:05:12.206Z,90.74
2022-12-11T06:09:05.629Z,90.66
2022-12-11T06:12:58.277Z,90.93
2022-12-11T06:16:51.092Z,90.89
2022-12-11T06:20:44.001Z,90.64
2022-12-11T06:24:36.918Z,90.03
2022-12-11T06:28:29.502Z,90.01
2022-12-11T06:32:22.256Z,89.64
2022-12-11T06:36:20.146Z,89.53
2022-12-11T06:40:13.381Z,89.26
2022-12-11T06:44:06.078Z,89.80
2022-12-11T06:47:59.094Z,89.62
2022-12-11T06:51:51.846Z,90.08
2022-12-11T06:55:44.699Z,89.17
2022-12-11T06:59:37.479Z,88.62
2022-12-11T07:03:30.350Z,88.88
2022-12-11T07:07:23.047Z,88.95
2022-12-11T07:11:17.799Z,87.72
2022-12-11T07:15:10.972Z,88.38
2022-12-11T07:19:03.977Z,88.40
2022-12-11T07:22:56.420Z,87.01
2022-12-11T07:26:49.161Z,88.04
2022-12-11T07:30:41.733Z,87.50
2022-12-11T07:34:34.271Z,87.44
2022-12-11T07:38:27.224Z,87.07
2022-12-11T07:42:19.973Z,86.68
2022-12-11T07:46:15.228Z,86.80
2022-12-11T07:50:08.553Z,86.62
2022-12-11T07:54:05.172Z,85.98
2022-12-11T07:57:57.775Z,85.80
2022-12-11T08:01:51.706Z,86.07
2022-12-11T08:05:50.254Z,85.96
2022-12-11T08:09:42.833Z,85.62
2022-12-11T08:13:36.162Z,85.25
2022-12-11T08:17:30.951Z,85.87
2022-12-11T08:21:28.475Z,86.17
2022-12-11T08:25:21.455Z,85.17
2022-12-11T08:29:14.811Z,83.84
2022-12-11T08:33:07.665Z,84.67
2022-12-11T08:37:06.063Z,84.48
2022-12-11T08:40:59.632Z,84.59
2022-12-11T08:44:52.331Z,85.14
2022-12-11T08:48:45.211Z,84.31
2022-12-11T08:52:37.732Z,84.72
2022-12-11T08:56:30.718Z,83.98
2022-12-11T09:00:23.387Z,84.09
2022-12-11T09:04:16.235Z,83.55
2022-12-11T09:08:08.783Z,83.69
2022-12-11T09:12:01.919Z,83.46
2022-12-11T09:15:54.644Z,83.45
2022-12-11T09:19:47.234Z,82.67
2022-12-11T09:23:40.645Z,83.69
2022-12-11T09:27:34.691Z,82.70
2022-12-11T09:31:30.607Z,83.16
2022-12-11T09:35:23.334Z,82.55
2022-12-11T09:39:18.012Z,82.36
2022-12-11T09:43:25.676Z,81.55
2022-12-11T09:47:27.964Z,81.16
2022-12-11T09:51:29.533Z,81.97
2022-12-11T09:55:25.024Z,82.09
2022-12-11T09:59:32.523Z,81.17
2022-12-11T10:03:50.428Z,81.10
2022-12-11T10:07:50.963Z,81.21
2022-12-11T10:11:56.337Z,81.11
2022-12-11T10:16:04.367Z,80.68
2022-12-11T10:20:00.929Z,80.70
2022-12-11T10:24:01.161Z,80.93
2022-12-11T10:27:54.163Z,80.58
2022-12-11T10:31:59.275Z,81.20
2022-12-11T10:35:55.409Z,80.43
2022-12-11T10:39:47.993Z,80.81
2022-12-11T10:43:44.004Z,80.32
2022-12-11T10:47:36.792Z,80.14
2022-12-11T10:51:33.296Z,79.85
2022-12-11T10:55:34.472Z,80.11
2022-12-11T10:59:46.398Z,80.07
2022-12-11T11:03:53.904Z,80.43
2022-12-11T11:07:46.671Z,80.20
2022-12-11T11:11:39.760Z,80.11
2022-12-11T11:15:32.773Z,78.91
2022-12-11T11:19:31.478Z,80.18
2022-12-11T11:23:25.528Z,81.54
2022-12-11T11:27:30.260Z,79.03
2022-12-11T11:31:34.812Z,78.61
2022-12-11T11:35:29.322Z,77.74
2022-12-11T11:39:45.338Z,78.16
2022-12-11T11:43:43.861Z,78.84
2022-12-11T11:47:54.046Z,77.92
2022-12-11T11:51:56.604Z,78.17
2022-12-11T11:56:08.199Z,78.14
2022-12-11T12:00:15.630Z,78.08
2022-12-11T12:04:09.469Z,76.63
2022-12-11T12:08:17.456Z,77.44
2022-12-11T12:12:33.794Z,75.82
2022-12-11T12:16:56.335Z,75.79
2022-12-11T12:21:00.467Z,76.10
2022-12-11T12:25:18.902Z,76.41
2022-12-11T12:29:33.690Z,74.87
2022-12-11T12:33:31.191Z,75.08
2022-12-11T12:37:49.354Z,75.95
2022-12-11T12:41:48.315Z,76.36
2022-12-11T12:46:04.669Z,75.52
2022-12-11T12:50:00.425Z,74.11
2022-12-11T12:53:58.982Z,76.30
2022-12-11T12:58:00.701Z,75.99
2022-12-11T13:02:02.756Z,74.71
2022-12-11T13:05:59.921Z,75.27
2022-12-11T13:10:04.921Z,75.83
2022-12-11T13:14:15.673Z,74.69
2022-12-11T13:18:32.835Z,75.07
2022-12-11T13:22:25.743Z,74.93
2022-12-11T13:26:36.671Z,76.12
2022-12-11T13:30:30.382Z,75.68
2022-12-11T13:34:24.361Z,75.35
2022-12-11T13:38:20.807Z,76.57
2022-12-11T13:42:40.973Z,76.47
2022-12-11T13:46:36.931Z,75.48
2022-12-11T13:50:33.482Z,76.19
2022-12-11T13:54:29.118Z,76.80
2022-12-11T13:58:23.892Z,76.18
2022-12-11T14:02:28.161Z,76.48
2022-12-11T14:06:21.277Z,76.54
2022-12-11T14:10:24.994Z,75.91
2022-12-11T14:14:25.686Z,76.33
2022-12-11T14:18:23.138Z,77.23
2022-12-11T14:22:21.110Z,76.28
2022-12-11T14:26:28.615Z,76.36
2022-12-11T14:30:33.996Z,76.10
2022-12-11T14:34:47.951Z,76.82
2022-12-11T14:38:47.728Z,77.14
2022-12-11T14:42:46.155Z,76.87
2022-12-11T14:46:44.087Z,77.51
2022-12-11T14:50:43.856Z,77.45
2022-12-11T14:54:42.035Z,77.27
2022-12-11T14:58:42.876Z,78.28
2022-12-11T15:02:37.605Z,77.36
2022-12-11T15:06:36.309Z,77.15
2022-12-11T15:10:59.881Z,77.80
2022-12-11T15:14:57.058Z,77.47
2022-12-11T15:18:52.094Z,77.68
2022-12-11T15:22:45.315Z,77.42
2022-12-11T15:26:44.260Z,77.70
2022-12-11T15:30:37.065Z,77.58
2022-12-11T15:34:53.227Z,78.08
2022-12-11T15:38:49.107Z,77.66
2022-12-11T15:42:42.637Z,78.08
2022-12-11T15:46:38.310Z,76.93
2022-12-11T15:50:31.564Z,76.49
2022-12-11T15:54:24.471Z,76.45
2022-12-11T15:58:21.313Z,76.05
2022-12-11T16:02:14.328Z,76.39
2022-12-11T16:06:07.334Z,76.03
2022-12-11T16:10:00.377Z,76.41
2022-12-11T16:13:53.347Z,76.75
2022-12-11T16:17:45.998Z,77.12
2022-12-11T16:21:38.847Z,76.94
2022-12-11T16:25:33.127Z,76.62
2022-12-11T16:29:26.332Z,76.56
2022-12-11T16:33:20.000Z,76.51
2022-12-11T16:37:14.390Z,76.12
2022-12-11T16:41:07.379Z,76.50
2022-12-11T16:45:11.039Z,76.11
2022-12-11T16:49:04.945Z,75.82
2022-12-11T16:52:58.046Z,76.15
2022-12-11T16:56:51.433Z,75.97
2022-12-11T17:00:44.508Z,75.63
2022-12-11T17:04:40.866Z,75.68
2022-12-11T17:08:33.874Z,75.70
2022-12-11T17:12:28.718Z,76.03
2022-12-11T17:16:22.549Z,75.98
2022-12-11T17:20:15.979Z,75.48
2022-12-11T17:24:10.848Z,75.54
2022-12-11T17:28:03.897Z,75.67
2022-12-11T17:31:57.341Z,75.39
2022-12-11T17:35:50.777Z,76.57
2022-12-11T17:39:44.770Z,76.57
2022-12-11T17:43:37.998Z,75.98
2022-12-11T17:47:31.717Z,76.74
2022-12-11T17:51:25.435Z,77.33
2022-12-11T17:55:18.334Z,76.71
2022-12-11T17:59:11.496Z,77.33
2022-12-11T18:03:05.425Z,76.58
2022-12-11T18:07:00.146Z,77.74
2022-12-11T18:10:54.692Z,78.00
2022-12-11T18:14:47.530Z,77.97
2022-12-11T18:18:41.352Z,78.62
2022-12-11T18:22:35.161Z,78.58
2022-12-11T18:26:28.693Z,78.57
2022-12-11T18:30:24.194Z,79.15
2022-12-11T18:34:25.929Z,78.43
2022-12-11T18:38:19.118Z,78.19
2022-12-11T18:46:26.651Z,79.17
2022-12-11T18:50:19.877Z,79.44
2022-12-11T18:54:14.248Z,79.43
2022-12-11T18:58:09.537Z,79.37
2022-12-11T19:02:03.195Z,78.95
2022-12-11T19:05:58.527Z,79.28
2022-12-11T19:09:52.014Z,78.64
2022-12-11T19:13:46.434Z,79.46
2022-12-11T19:17:40.124Z,79.00
2022-12-11T19:21:40.526Z,78.87
2022-12-11T19:25:34.603Z,78.78
2022-12-11T19:29:32.867Z,79.26
2022-12-11T19:33:26.313Z,80.58
2022-12-11T19:37:20.415Z,81.43
2022-12-11T19:41:32.360Z,81.38
2022-12-11T19:45:25.625Z,81.55
2022-12-11T19:49:19.897Z,82.20
2022-12-11T19:53:13.759Z,82.07
2022-12-11T19:57:07.224Z,81.68
2022-12-11T20:01:01.620Z,81.96
2022-12-11T20:04:55.880Z,82.32
2022-12-11T20:08:50.177Z,82.73
2022-12-11T20:12:44.764Z,83.18
2022-12-11T20:20:52.873Z,84.13
2022-12-11T20:24:46.547Z,84.20
2022-12-11T20:28:40.423Z,84.25
2022-12-11T20:32:35.189Z,85.07
2022-12-11T20:36:30.137Z,86.22
2022-12-11T20:40:23.419Z,86.04
2022-12-11T20:44:16.617Z,86.87
2022-12-11T20:48:10.039Z,86.26
2022-12-11T20:52:05.214Z,86.38
2022-12-11T20:55:58.548Z,87.04
2022-12-11T20:59:51.902Z,87.65
2022-12-11T21:03:46.361Z,88.00
2022-12-11T21:07:41.127Z,87.69
2022-12-11T21:11:34.646Z,87.37
2022-12-11T21:15:27.443Z,87.09
2022-12-11T21:19:24.133Z,87.56
2022-12-11T21:23:17.584Z,87.29
2022-12-11T21:27:11.516Z,86.86
2022-12-11T21:31:12.148Z,87.16
2022-12-11T21:35:05.670Z,87.76
2022-12-11T21:39:00.096Z,87.32
2022-12-11T21:42:53.385Z,87.39
2022-12-11T21:46:46.643Z,86.40
2022-12-11T21:50:40.540Z,87.82
2022-12-11T21:54:33.575Z,87.20
2022-12-11T21:58:26.180Z,87.64
2022-12-11T22:02:18.814Z,87.19
2022-12-11T22:06:11.939Z,86.68
2022-12-11T22:10:05.693Z,87.08
2022-12-11T22:13:58.638Z,86.58
2022-12-11T22:17:51.396Z,86.36
2022-12-11T22:21:44.644Z,84.98
2022-12-11T22:25:37.329Z,86.03
2022-12-11T22:29:29.763Z,85.86
2022-12-11T22:33:22.690Z,85.93
2022-12-11T22:37:15.303Z,86.65
2022-12-11T22:41:24.951Z,86.76
2022-12-11T22:45:17.911Z,86.99
2022-12-11T22:49:10.753Z,86.95
2022-12-11T22:53:04.654Z,87.22
2022-12-11T22:56:57.758Z,86.90
2022-12-11T23:00:50.705Z,87.64
2022-12-11T23:04:43.416Z,87.87
2022-12-11T23:08:36.404Z,87.86
2022-12-11T23:12:29.048Z,87.58
2022-12-11T23:16:26.012Z,87.50
2022-12-11T23:20:19.393Z,87.78
2022-12-11T23:24:11.982Z,87.33
2022-12-11T23:28:04.714Z,87.20
2022-12-11T23:31:59.140Z,87.70
2022-12-11T23:35:51.965Z,88.36
2022-12-11T23:39:44.497Z,87.22
2022-12-11T23:43:38.134Z,87.02
2022-12-11T23:47:31.087Z,86.95
2022-12-11T23:51:25.670Z,86.15
2022-12-11T23:55:18.493Z,86.96
2022-12-11T23:59:14.942Z,86.59
